sensor_id;sensor_type;location;lat;lon;timestamp;temperature;humidity
35668;DHT22;22158;59.280;17.806;2024-03-08T00:00:15;-1.90;99.90
35668;DHT22;22158;59.280;17.806;2024-03-08T00:02:45;-2.00;99.90
35668;DHT22;22158;59.280;17.806;2024-03-08T00:05:11;-2.00;99.90
35668;DHT22;22158;59.280;17.806;2024-03-08T00:07:41;-2.00;99.90
35668;DHT22;22158;59.280;17.806;2024-03-08T00:10:08;-2.00;99.90
35668;DHT22;22158;59.280;17.806;2024-03-08T00:12:45;-2.00;99.90
35668;DHT22;22158;59.280;17.806;2024-03-08T00:15:15;-2.00;99.90
35668;DHT22;22158;59.280;17.806;2024-03-08T00:17:42;-2.00;99.90
35668;DHT22;22158;59.280;17.806;2024-03-08T00:20:09;-2.10;99.90
35668;DHT22;22158;59.280;17.806;2024-03-08T00:22:36;-2.10;99.90
35668;DHT22;22158;59.280;17.806;2024-03-08T00:25:05;-2.10;99.90
35668;DHT22;22158;59.280;17.806;2024-03-08T00:27:34;-2.10;99.90
35668;DHT22;22158;59.280;17.806;2024-03-08T00:30:00;-2.10;99.90
35668;DHT22;22158;59.280;17.806;2024-03-08T00:32:26;-2.10;99.90
35668;DHT22;22158;59.280;17.806;2024-03-08T00:34:53;-2.10;99.90
35668;DHT22;22158;59.280;17.806;2024-03-08T00:37:20;-2.20;99.90
35668;DHT22;22158;59.280;17.806;2024-03-08T00:39:48;-2.20;99.90
35668;DHT22;22158;59.280;17.806;2024-03-08T00:42:15;-2.20;99.90
35668;DHT22;22158;59.280;17.806;2024-03-08T00:44:41;-2.20;99.90
35668;DHT22;22158;59.280;17.806;2024-03-08T00:47:07;-2.20;99.90
35668;DHT22;22158;59.280;17.806;2024-03-08T00:49:32;-2.30;99.90
35668;DHT22;22158;59.280;17.806;2024-03-08T00:51:58;-2.30;99.90
35668;DHT22;22158;59.280;17.806;2024-03-08T00:54:24;-2.40;99.90
35668;DHT22;22158;59.280;17.806;2024-03-08T00:56:49;-2.40;99.90
35668;DHT22;22158;59.280;17.806;2024-03-08T00:59:16;-2.40;99.90
35668;DHT22;22158;59.280;17.806;2024-03-08T01:01:41;-2.40;99.90
35668;DHT22;22158;59.280;17.806;2024-03-08T01:04:07;-2.50;99.90
35668;DHT22;22158;59.280;17.806;2024-03-08T01:06:34;-2.50;99.90
35668;DHT22;22158;59.280;17.806;2024-03-08T01:08:59;-2.50;99.90
35668;DHT22;22158;59.280;17.806;2024-03-08T01:11:25;-2.50;99.90
35668;DHT22;22158;59.280;17.806;2024-03-08T01:13:53;-2.60;99.90
35668;DHT22;22158;59.280;17.806;2024-03-08T01:16:19;-2.60;99.90
35668;DHT22;22158;59.280;17.806;2024-03-08T01:18:47;-2.60;99.90
35668;DHT22;22158;59.280;17.806;2024-03-08T01:21:12;-2.60;99.90
35668;DHT22;22158;59.280;17.806;2024-03-08T01:23:38;-2.60;99.90
35668;DHT22;22158;59.280;17.806;2024-03-08T01:26:04;-2.60;99.90
35668;DHT22;22158;59.280;17.806;2024-03-08T01:28:30;-2.60;99.90
35668;DHT22;22158;59.280;17.806;2024-03-08T01:30:57;-2.60;99.90
35668;DHT22;22158;59.280;17.806;2024-03-08T01:33:24;-2.70;99.90
35668;DHT22;22158;59.280;17.806;2024-03-08T01:35:51;-2.70;99.90
35668;DHT22;22158;59.280;17.806;2024-03-08T01:38:17;-2.70;99.90
35668;DHT22;22158;59.280;17.806;2024-03-08T01:40:43;-2.70;99.90
35668;DHT22;22158;59.280;17.806;2024-03-08T01:45:42;-2.80;99.90
35668;DHT22;22158;59.280;17.806;2024-03-08T01:48:08;-2.80;99.90
35668;DHT22;22158;59.280;17.806;2024-03-08T01:50:34;-2.80;99.90
35668;DHT22;22158;59.280;17.806;2024-03-08T01:53:02;-2.90;99.90
35668;DHT22;22158;59.280;17.806;2024-03-08T01:55:28;-2.90;99.90
35668;DHT22;22158;59.280;17.806;2024-03-08T01:57:55;-2.90;99.90
35668;DHT22;22158;59.280;17.806;2024-03-08T02:00:21;-2.90;99.90
35668;DHT22;22158;59.280;17.806;2024-03-08T02:02:47;-2.90;99.90
35668;DHT22;22158;59.280;17.806;2024-03-08T02:05:15;-2.90;99.90
35668;DHT22;22158;59.280;17.806;2024-03-08T02:07:41;-2.90;99.90
35668;DHT22;22158;59.280;17.806;2024-03-08T02:10:10;-2.90;99.90
35668;DHT22;22158;59.280;17.806;2024-03-08T02:12:38;-2.90;99.90
35668;DHT22;22158;59.280;17.806;2024-03-08T02:15:04;-2.90;99.90
35668;DHT22;22158;59.280;17.806;2024-03-08T02:17:32;-3.00;99.90
35668;DHT22;22158;59.280;17.806;2024-03-08T02:20:02;-3.00;99.90
35668;DHT22;22158;59.280;17.806;2024-03-08T02:22:30;-3.00;99.90
35668;DHT22;22158;59.280;17.806;2024-03-08T02:24:58;-3.00;99.90
35668;DHT22;22158;59.280;17.806;2024-03-08T02:27:24;-3.00;99.90
35668;DHT22;22158;59.280;17.806;2024-03-08T02:29:59;-3.00;99.90
35668;DHT22;22158;59.280;17.806;2024-03-08T02:32:25;-3.10;99.90
35668;DHT22;22158;59.280;17.806;2024-03-08T02:34:51;-3.10;99.90
35668;DHT22;22158;59.280;17.806;2024-03-08T02:37:17;-3.10;99.90
35668;DHT22;22158;59.280;17.806;2024-03-08T02:39:43;-3.10;99.90
35668;DHT22;22158;59.280;17.806;2024-03-08T02:42:09;-3.10;99.90
35668;DHT22;22158;59.280;17.806;2024-03-08T02:44:34;-3.10;99.90
35668;DHT22;22158;59.280;17.806;2024-03-08T02:47:00;-3.10;99.90
35668;DHT22;22158;59.280;17.806;2024-03-08T02:49:26;-3.20;99.90
35668;DHT22;22158;59.280;17.806;2024-03-08T02:51:53;-3.20;99.90
35668;DHT22;22158;59.280;17.806;2024-03-08T02:54:19;-3.20;99.90
35668;DHT22;22158;59.280;17.806;2024-03-08T02:56:45;-3.20;99.90
35668;DHT22;22158;59.280;17.806;2024-03-08T02:59:15;-3.20;99.90
35668;DHT22;22158;59.280;17.806;2024-03-08T03:01:43;-3.20;99.90
35668;DHT22;22158;59.280;17.806;2024-03-08T03:04:08;-3.20;99.90
35668;DHT22;22158;59.280;17.806;2024-03-08T03:06:34;-3.20;99.90
35668;DHT22;22158;59.280;17.806;2024-03-08T03:09:00;-3.20;99.90
35668;DHT22;22158;59.280;17.806;2024-03-08T03:11:25;-3.20;99.90
35668;DHT22;22158;59.280;17.806;2024-03-08T03:13:52;-3.20;99.90
35668;DHT22;22158;59.280;17.806;2024-03-08T03:16:21;-3.20;99.90
35668;DHT22;22158;59.280;17.806;2024-03-08T03:18:47;-3.20;99.90
35668;DHT22;22158;59.280;17.806;2024-03-08T03:21:13;-3.20;99.90
35668;DHT22;22158;59.280;17.806;2024-03-08T03:23:42;-3.10;99.90
35668;DHT22;22158;59.280;17.806;2024-03-08T03:26:08;-3.10;99.90
35668;DHT22;22158;59.280;17.806;2024-03-08T03:28:36;-3.20;99.90
35668;DHT22;22158;59.280;17.806;2024-03-08T03:31:07;-3.20;99.90
35668;DHT22;22158;59.280;17.806;2024-03-08T03:33:33;-3.20;99.90
35668;DHT22;22158;59.280;17.806;2024-03-08T03:36:03;-3.10;99.90
35668;DHT22;22158;59.280;17.806;2024-03-08T03:38:30;-3.20;99.90
35668;DHT22;22158;59.280;17.806;2024-03-08T03:40:57;-3.20;99.90
35668;DHT22;22158;59.280;17.806;2024-03-08T03:43:29;-3.20;99.90
35668;DHT22;22158;59.280;17.806;2024-03-08T03:45:55;-3.20;99.90
35668;DHT22;22158;59.280;17.806;2024-03-08T03:48:21;-3.20;99.90
35668;DHT22;22158;59.280;17.806;2024-03-08T03:50:46;-3.20;99.90
35668;DHT22;22158;59.280;17.806;2024-03-08T03:53:12;-3.20;99.90
35668;DHT22;22158;59.280;17.806;2024-03-08T03:55:38;-3.20;99.90
35668;DHT22;22158;59.280;17.806;2024-03-08T03:58:04;-3.20;99.90
35668;DHT22;22158;59.280;17.806;2024-03-08T04:00:30;-3.20;99.90
35668;DHT22;22158;59.280;17.806;2024-03-08T04:02:56;-3.20;99.90
35668;DHT22;22158;59.280;17.806;2024-03-08T04:05:24;-3.20;99.90
35668;DHT22;22158;59.280;17.806;2024-03-08T04:07:50;-3.20;99.90
35668;DHT22;22158;59.280;17.806;2024-03-08T04:10:15;-3.20;99.90
35668;DHT22;22158;59.280;17.806;2024-03-08T04:12:41;-3.20;99.90
35668;DHT22;22158;59.280;17.806;2024-03-08T04:15:07;-3.30;99.90
35668;DHT22;22158;59.280;17.806;2024-03-08T04:17:34;-3.30;99.90
35668;DHT22;22158;59.280;17.806;2024-03-08T04:20:03;-3.30;99.90
35668;DHT22;22158;59.280;17.806;2024-03-08T04:22:37;-3.30;99.90
35668;DHT22;22158;59.280;17.806;2024-03-08T04:25:03;-3.30;99.90
35668;DHT22;22158;59.280;17.806;2024-03-08T04:27:29;-3.40;99.90
35668;DHT22;22158;59.280;17.806;2024-03-08T04:29:55;-3.40;99.90
35668;DHT22;22158;59.280;17.806;2024-03-08T04:32:20;-3.40;99.90
35668;DHT22;22158;59.280;17.806;2024-03-08T04:34:47;-3.40;99.90
35668;DHT22;22158;59.280;17.806;2024-03-08T04:37:14;-3.40;99.90
35668;DHT22;22158;59.280;17.806;2024-03-08T04:39:40;-3.40;99.90
35668;DHT22;22158;59.280;17.806;2024-03-08T04:42:06;-3.40;99.90
35668;DHT22;22158;59.280;17.806;2024-03-08T04:44:36;-3.40;99.90
35668;DHT22;22158;59.280;17.806;2024-03-08T04:47:03;-3.40;99.90
35668;DHT22;22158;59.280;17.806;2024-03-08T04:49:32;-3.40;99.90
35668;DHT22;22158;59.280;17.806;2024-03-08T04:51:57;-3.40;99.90
35668;DHT22;22158;59.280;17.806;2024-03-08T04:54:23;-3.40;99.90
35668;DHT22;22158;59.280;17.806;2024-03-08T04:56:49;-3.40;99.90
35668;DHT22;22158;59.280;17.806;2024-03-08T04:59:15;-3.40;99.90
35668;DHT22;22158;59.280;17.806;2024-03-08T05:01:40;-3.40;99.90
35668;DHT22;22158;59.280;17.806;2024-03-08T05:04:06;-3.40;99.90
35668;DHT22;22158;59.280;17.806;2024-03-08T05:06:32;-3.40;99.90
35668;DHT22;22158;59.280;17.806;2024-03-08T05:08:58;-3.40;99.90
35668;DHT22;22158;59.280;17.806;2024-03-08T05:11:24;-3.50;99.90
35668;DHT22;22158;59.280;17.806;2024-03-08T05:13:49;-3.40;99.90
35668;DHT22;22158;59.280;17.806;2024-03-08T05:16:15;-3.40;99.90
35668;DHT22;22158;59.280;17.806;2024-03-08T05:18:41;-3.50;99.90
35668;DHT22;22158;59.280;17.806;2024-03-08T05:21:07;-3.50;99.90
35668;DHT22;22158;59.280;17.806;2024-03-08T05:23:34;-3.50;99.90
35668;DHT22;22158;59.280;17.806;2024-03-08T05:26:00;-3.50;99.90
35668;DHT22;22158;59.280;17.806;2024-03-08T05:28:26;-3.50;99.90
35668;DHT22;22158;59.280;17.806;2024-03-08T05:30:52;-3.50;99.90
35668;DHT22;22158;59.280;17.806;2024-03-08T05:33:17;-3.50;99.90
35668;DHT22;22158;59.280;17.806;2024-03-08T05:35:44;-3.50;99.90
35668;DHT22;22158;59.280;17.806;2024-03-08T05:38:10;-3.50;99.90
35668;DHT22;22158;59.280;17.806;2024-03-08T05:40:38;-3.50;99.90
35668;DHT22;22158;59.280;17.806;2024-03-08T05:43:04;-3.50;99.90
35668;DHT22;22158;59.280;17.806;2024-03-08T05:45:30;-3.50;99.90
35668;DHT22;22158;59.280;17.806;2024-03-08T05:47:56;-3.50;99.90
35668;DHT22;22158;59.280;17.806;2024-03-08T05:50:22;-3.50;99.90
35668;DHT22;22158;59.280;17.806;2024-03-08T05:52:47;-3.50;99.90
35668;DHT22;22158;59.280;17.806;2024-03-08T05:55:13;-3.50;99.90
35668;DHT22;22158;59.280;17.806;2024-03-08T05:57:40;-3.50;99.90
35668;DHT22;22158;59.280;17.806;2024-03-08T06:00:08;-3.50;99.90
35668;DHT22;22158;59.280;17.806;2024-03-08T06:02:36;-3.50;99.90
35668;DHT22;22158;59.280;17.806;2024-03-08T06:05:08;-3.50;99.90
35668;DHT22;22158;59.280;17.806;2024-03-08T06:07:33;-3.40;99.90
35668;DHT22;22158;59.280;17.806;2024-03-08T06:09:59;-3.40;99.90
35668;DHT22;22158;59.280;17.806;2024-03-08T06:12:25;-3.40;99.90
35668;DHT22;22158;59.280;17.806;2024-03-08T06:14:54;-3.30;99.90
35668;DHT22;22158;59.280;17.806;2024-03-08T06:17:20;-3.30;99.90
35668;DHT22;22158;59.280;17.806;2024-03-08T06:19:45;-3.30;99.90
35668;DHT22;22158;59.280;17.806;2024-03-08T06:22:12;-3.30;99.90
35668;DHT22;22158;59.280;17.806;2024-03-08T06:24:38;-3.20;99.90
35668;DHT22;22158;59.280;17.806;2024-03-08T06:27:04;-3.20;99.90
35668;DHT22;22158;59.280;17.806;2024-03-08T06:29:30;-3.10;99.90
35668;DHT22;22158;59.280;17.806;2024-03-08T06:31:55;-3.10;99.90
35668;DHT22;22158;59.280;17.806;2024-03-08T06:34:21;-3.00;99.90
35668;DHT22;22158;59.280;17.806;2024-03-08T06:36:47;-2.90;99.90
35668;DHT22;22158;59.280;17.806;2024-03-08T06:39:12;-2.90;99.90
35668;DHT22;22158;59.280;17.806;2024-03-08T06:41:38;-2.80;99.90
35668;DHT22;22158;59.280;17.806;2024-03-08T06:44:04;-2.70;99.90
35668;DHT22;22158;59.280;17.806;2024-03-08T06:46:30;-2.70;99.90
35668;DHT22;22158;59.280;17.806;2024-03-08T06:48:56;-2.60;99.90
35668;DHT22;22158;59.280;17.806;2024-03-08T06:51:21;-2.60;99.90
35668;DHT22;22158;59.280;17.806;2024-03-08T06:53:47;-2.50;99.90
35668;DHT22;22158;59.280;17.806;2024-03-08T06:56:14;-2.50;99.90
35668;DHT22;22158;59.280;17.806;2024-03-08T06:58:41;-2.40;99.90
35668;DHT22;22158;59.280;17.806;2024-03-08T07:01:07;-2.40;99.90
35668;DHT22;22158;59.280;17.806;2024-03-08T07:03:41;-2.30;99.90
35668;DHT22;22158;59.280;17.806;2024-03-08T07:06:10;-2.20;99.90
35668;DHT22;22158;59.280;17.806;2024-03-08T07:08:36;-2.20;99.90
35668;DHT22;22158;59.280;17.806;2024-03-08T07:11:02;-2.10;99.90
35668;DHT22;22158;59.280;17.806;2024-03-08T07:13:29;-2.00;99.90
35668;DHT22;22158;59.280;17.806;2024-03-08T07:15:55;-1.90;99.90
35668;DHT22;22158;59.280;17.806;2024-03-08T07:18:20;-1.90;99.90
35668;DHT22;22158;59.280;17.806;2024-03-08T07:20:47;-1.80;99.90
35668;DHT22;22158;59.280;17.806;2024-03-08T07:23:14;-1.70;99.90
35668;DHT22;22158;59.280;17.806;2024-03-08T07:26:00;-1.60;99.90
35668;DHT22;22158;59.280;17.806;2024-03-08T07:28:26;-1.50;99.90
35668;DHT22;22158;59.280;17.806;2024-03-08T07:30:53;-1.40;99.90
35668;DHT22;22158;59.280;17.806;2024-03-08T07:33:27;-1.40;99.90
35668;DHT22;22158;59.280;17.806;2024-03-08T07:35:52;-1.30;99.90
35668;DHT22;22158;59.280;17.806;2024-03-08T07:38:18;-1.20;99.90
35668;DHT22;22158;59.280;17.806;2024-03-08T07:40:46;-1.10;99.90
35668;DHT22;22158;59.280;17.806;2024-03-08T07:43:13;-1.10;99.90
35668;DHT22;22158;59.280;17.806;2024-03-08T07:45:39;-1.00;99.90
35668;DHT22;22158;59.280;17.806;2024-03-08T07:48:06;-0.90;99.90
35668;DHT22;22158;59.280;17.806;2024-03-08T07:50:39;-0.90;99.90
35668;DHT22;22158;59.280;17.806;2024-03-08T07:53:05;-0.80;99.90
35668;DHT22;22158;59.280;17.806;2024-03-08T07:55:34;-0.80;99.90
35668;DHT22;22158;59.280;17.806;2024-03-08T07:58:01;-0.70;99.90
35668;DHT22;22158;59.280;17.806;2024-03-08T08:00:26;-0.60;99.90
35668;DHT22;22158;59.280;17.806;2024-03-08T08:02:53;-0.50;99.90
35668;DHT22;22158;59.280;17.806;2024-03-08T08:05:19;-0.40;99.90
35668;DHT22;22158;59.280;17.806;2024-03-08T08:07:45;-0.30;99.90
35668;DHT22;22158;59.280;17.806;2024-03-08T08:10:14;-0.30;99.90
35668;DHT22;22158;59.280;17.806;2024-03-08T08:12:50;-0.20;99.90
35668;DHT22;22158;59.280;17.806;2024-03-08T08:15:17;-0.10;99.90
35668;DHT22;22158;59.280;17.806;2024-03-08T08:17:43;0.00;99.90
35668;DHT22;22158;59.280;17.806;2024-03-08T08:20:10;0.00;99.90
35668;DHT22;22158;59.280;17.806;2024-03-08T08:22:38;0.10;99.90
35668;DHT22;22158;59.280;17.806;2024-03-08T08:25:05;0.10;99.90
35668;DHT22;22158;59.280;17.806;2024-03-08T08:27:30;0.20;99.90
35668;DHT22;22158;59.280;17.806;2024-03-08T08:29:56;0.30;99.90
35668;DHT22;22158;59.280;17.806;2024-03-08T08:32:22;0.40;99.90
35668;DHT22;22158;59.280;17.806;2024-03-08T08:34:48;0.40;99.90
35668;DHT22;22158;59.280;17.806;2024-03-08T08:37:14;0.50;99.90
35668;DHT22;22158;59.280;17.806;2024-03-08T08:39:39;0.60;99.90
35668;DHT22;22158;59.280;17.806;2024-03-08T08:42:05;0.70;99.90
35668;DHT22;22158;59.280;17.806;2024-03-08T08:44:37;0.70;99.90
35668;DHT22;22158;59.280;17.806;2024-03-08T08:47:03;0.80;99.90
35668;DHT22;22158;59.280;17.806;2024-03-08T08:49:31;0.90;99.90
35668;DHT22;22158;59.280;17.806;2024-03-08T08:51:57;1.00;99.90
35668;DHT22;22158;59.280;17.806;2024-03-08T08:54:26;1.10;99.90
35668;DHT22;22158;59.280;17.806;2024-03-08T08:56:53;1.10;99.90
35668;DHT22;22158;59.280;17.806;2024-03-08T08:59:19;1.10;99.90
35668;DHT22;22158;59.280;17.806;2024-03-08T09:01:47;1.20;99.90
35668;DHT22;22158;59.280;17.806;2024-03-08T09:04:13;1.20;99.90
35668;DHT22;22158;59.280;17.806;2024-03-08T09:06:39;1.30;99.90
35668;DHT22;22158;59.280;17.806;2024-03-08T09:09:08;1.40;99.90
35668;DHT22;22158;59.280;17.806;2024-03-08T09:11:38;1.40;99.90
35668;DHT22;22158;59.280;17.806;2024-03-08T09:14:08;1.50;99.90
35668;DHT22;22158;59.280;17.806;2024-03-08T09:16:34;1.50;99.90
35668;DHT22;22158;59.280;17.806;2024-03-08T09:18:59;1.60;99.90
35668;DHT22;22158;59.280;17.806;2024-03-08T09:21:25;1.80;99.90
35668;DHT22;22158;59.280;17.806;2024-03-08T09:23:52;1.90;99.90
35668;DHT22;22158;59.280;17.806;2024-03-08T09:26:18;2.00;99.90
35668;DHT22;22158;59.280;17.806;2024-03-08T09:28:44;2.00;99.90
35668;DHT22;22158;59.280;17.806;2024-03-08T09:31:11;2.10;99.90
35668;DHT22;22158;59.280;17.806;2024-03-08T09:33:37;2.20;99.90
35668;DHT22;22158;59.280;17.806;2024-03-08T09:36:05;2.20;99.90
35668;DHT22;22158;59.280;17.806;2024-03-08T09:38:31;2.30;99.90
35668;DHT22;22158;59.280;17.806;2024-03-08T09:40:57;2.40;99.90
35668;DHT22;22158;59.280;17.806;2024-03-08T09:43:23;2.50;99.90
35668;DHT22;22158;59.280;17.806;2024-03-08T09:45:50;2.60;99.90
35668;DHT22;22158;59.280;17.806;2024-03-08T09:48:17;2.60;99.90
35668;DHT22;22158;59.280;17.806;2024-03-08T09:50:44;2.70;99.90
35668;DHT22;22158;59.280;17.806;2024-03-08T09:53:12;2.80;99.90
35668;DHT22;22158;59.280;17.806;2024-03-08T09:55:38;2.80;99.90
35668;DHT22;22158;59.280;17.806;2024-03-08T09:58:08;2.90;99.90
35668;DHT22;22158;59.280;17.806;2024-03-08T10:00:53;2.90;99.90
35668;DHT22;22158;59.280;17.806;2024-03-08T10:03:20;3.00;99.90
35668;DHT22;22158;59.280;17.806;2024-03-08T10:05:45;3.00;99.90
35668;DHT22;22158;59.280;17.806;2024-03-08T10:08:12;3.00;99.90
35668;DHT22;22158;59.280;17.806;2024-03-08T10:10:39;3.10;99.90
35668;DHT22;22158;59.280;17.806;2024-03-08T10:13:08;3.10;99.90
35668;DHT22;22158;59.280;17.806;2024-03-08T10:15:35;3.10;99.90
35668;DHT22;22158;59.280;17.806;2024-03-08T10:18:01;3.20;99.90
35668;DHT22;22158;59.280;17.806;2024-03-08T10:20:31;3.20;99.90
35668;DHT22;22158;59.280;17.806;2024-03-08T10:23:03;3.30;99.90
35668;DHT22;22158;59.280;17.806;2024-03-08T10:25:33;3.30;99.90
35668;DHT22;22158;59.280;17.806;2024-03-08T10:27:59;3.40;99.90
35668;DHT22;22158;59.280;17.806;2024-03-08T10:30:25;3.50;99.90
35668;DHT22;22158;59.280;17.806;2024-03-08T10:32:51;3.60;99.90
35668;DHT22;22158;59.280;17.806;2024-03-08T10:35:17;3.60;99.90
35668;DHT22;22158;59.280;17.806;2024-03-08T10:37:50;3.70;99.90
35668;DHT22;22158;59.280;17.806;2024-03-08T10:40:25;3.70;99.90
35668;DHT22;22158;59.280;17.806;2024-03-08T10:42:58;3.70;99.90
35668;DHT22;22158;59.280;17.806;2024-03-08T10:45:39;3.70;99.90
35668;DHT22;22158;59.280;17.806;2024-03-08T10:50:46;3.90;99.90
35668;DHT22;22158;59.280;17.806;2024-03-08T10:53:14;4.00;99.90
35668;DHT22;22158;59.280;17.806;2024-03-08T10:55:40;4.00;99.90
35668;DHT22;22158;59.280;17.806;2024-03-08T10:58:06;4.10;99.90
35668;DHT22;22158;59.280;17.806;2024-03-08T11:00:34;4.00;99.90
35668;DHT22;22158;59.280;17.806;2024-03-08T11:03:00;4.10;99.90
35668;DHT22;22158;59.280;17.806;2024-03-08T11:05:39;4.20;99.90
35668;DHT22;22158;59.280;17.806;2024-03-08T11:10:47;4.20;99.90
35668;DHT22;22158;59.280;17.806;2024-03-08T11:16:02;4.30;99.90
35668;DHT22;22158;59.280;17.806;2024-03-08T11:18:33;4.40;99.90
35668;DHT22;22158;59.280;17.806;2024-03-08T11:21:02;4.60;99.90
35668;DHT22;22158;59.280;17.806;2024-03-08T11:23:32;4.60;99.90
35668;DHT22;22158;59.280;17.806;2024-03-08T11:25:59;4.70;99.90
35668;DHT22;22158;59.280;17.806;2024-03-08T11:28:25;4.80;99.90
35668;DHT22;22158;59.280;17.806;2024-03-08T11:33:27;4.90;99.90
35668;DHT22;22158;59.280;17.806;2024-03-08T11:38:40;5.00;99.90
35668;DHT22;22158;59.280;17.806;2024-03-08T11:41:06;5.00;99.90
35668;DHT22;22158;59.280;17.806;2024-03-08T11:43:33;5.10;99.90
35668;DHT22;22158;59.280;17.806;2024-03-08T11:46:08;5.20;99.90
35668;DHT22;22158;59.280;17.806;2024-03-08T11:48:34;5.20;99.90
35668;DHT22;22158;59.280;17.806;2024-03-08T11:51:04;5.30;99.90
35668;DHT22;22158;59.280;17.806;2024-03-08T11:53:30;5.30;99.90
35668;DHT22;22158;59.280;17.806;2024-03-08T11:56:12;5.30;99.90
35668;DHT22;22158;59.280;17.806;2024-03-08T11:58:39;5.30;99.90
35668;DHT22;22158;59.280;17.806;2024-03-08T12:01:10;5.20;99.90
35668;DHT22;22158;59.280;17.806;2024-03-08T12:03:39;5.30;99.90
35668;DHT22;22158;59.280;17.806;2024-03-08T12:06:08;5.40;99.90
35668;DHT22;22158;59.280;17.806;2024-03-08T12:08:35;5.40;99.90
35668;DHT22;22158;59.280;17.806;2024-03-08T12:11:01;5.50;99.90
35668;DHT22;22158;59.280;17.806;2024-03-08T12:13:31;5.50;99.90
35668;DHT22;22158;59.280;17.806;2024-03-08T12:16:01;5.50;99.90
35668;DHT22;22158;59.280;17.806;2024-03-08T12:18:29;5.60;99.90
35668;DHT22;22158;59.280;17.806;2024-03-08T12:21:27;5.50;99.90
35668;DHT22;22158;59.280;17.806;2024-03-08T12:24:08;5.60;99.90
35668;DHT22;22158;59.280;17.806;2024-03-08T12:26:38;5.60;99.90
35668;DHT22;22158;59.280;17.806;2024-03-08T12:29:27;5.70;99.90
35668;DHT22;22158;59.280;17.806;2024-03-08T12:31:58;5.80;99.90
35668;DHT22;22158;59.280;17.806;2024-03-08T12:34:27;5.90;99.90
35668;DHT22;22158;59.280;17.806;2024-03-08T12:36:54;5.90;99.90
35668;DHT22;22158;59.280;17.806;2024-03-08T12:39:21;6.00;99.90
35668;DHT22;22158;59.280;17.806;2024-03-08T12:41:53;6.00;99.90
35668;DHT22;22158;59.280;17.806;2024-03-08T12:44:20;6.10;99.90
35668;DHT22;22158;59.280;17.806;2024-03-08T12:46:50;6.10;99.90
35668;DHT22;22158;59.280;17.806;2024-03-08T12:49:17;6.10;99.90
35668;DHT22;22158;59.280;17.806;2024-03-08T12:51:46;6.20;99.90
35668;DHT22;22158;59.280;17.806;2024-03-08T12:54:12;6.20;99.90
35668;DHT22;22158;59.280;17.806;2024-03-08T12:56:38;6.30;99.90
35668;DHT22;22158;59.280;17.806;2024-03-08T12:59:06;6.30;99.90
35668;DHT22;22158;59.280;17.806;2024-03-08T13:01:32;6.40;99.90
35668;DHT22;22158;59.280;17.806;2024-03-08T13:04:00;6.40;99.90
35668;DHT22;22158;59.280;17.806;2024-03-08T13:06:28;6.40;99.90
35668;DHT22;22158;59.280;17.806;2024-03-08T13:08:55;6.40;99.90
35668;DHT22;22158;59.280;17.806;2024-03-08T13:11:24;6.50;99.90
35668;DHT22;22158;59.280;17.806;2024-03-08T13:13:51;6.50;99.90
35668;DHT22;22158;59.280;17.806;2024-03-08T13:16:16;6.50;99.90
35668;DHT22;22158;59.280;17.806;2024-03-08T13:18:45;6.50;99.90
35668;DHT22;22158;59.280;17.806;2024-03-08T13:21:11;6.60;99.90
35668;DHT22;22158;59.280;17.806;2024-03-08T13:23:40;6.80;99.90
35668;DHT22;22158;59.280;17.806;2024-03-08T13:26:07;6.90;99.90
35668;DHT22;22158;59.280;17.806;2024-03-08T13:28:32;7.00;99.90
35668;DHT22;22158;59.280;17.806;2024-03-08T13:31:06;7.10;99.90
35668;DHT22;22158;59.280;17.806;2024-03-08T13:33:32;7.20;99.90
35668;DHT22;22158;59.280;17.806;2024-03-08T13:36:01;7.40;99.90
35668;DHT22;22158;59.280;17.806;2024-03-08T13:38:27;7.90;99.90
35668;DHT22;22158;59.280;17.806;2024-03-08T13:40:53;8.50;99.90
35668;DHT22;22158;59.280;17.806;2024-03-08T13:43:19;9.10;98.40
35668;DHT22;22158;59.280;17.806;2024-03-08T13:45:46;9.30;97.30
35668;DHT22;22158;59.280;17.806;2024-03-08T13:48:11;9.30;97.10
35668;DHT22;22158;59.280;17.806;2024-03-08T13:50:38;9.10;97.20
35668;DHT22;22158;59.280;17.806;2024-03-08T13:53:05;8.70;97.50
35668;DHT22;22158;59.280;17.806;2024-03-08T13:55:30;8.60;98.10
35668;DHT22;22158;59.280;17.806;2024-03-08T13:57:57;8.40;98.70
35668;DHT22;22158;59.280;17.806;2024-03-08T14:00:25;8.20;99.10
35668;DHT22;22158;59.280;17.806;2024-03-08T14:02:53;7.90;99.70
35668;DHT22;22158;59.280;17.806;2024-03-08T14:05:19;7.80;99.60
35668;DHT22;22158;59.280;17.806;2024-03-08T14:07:45;7.60;99.70
35668;DHT22;22158;59.280;17.806;2024-03-08T14:10:14;7.60;99.90
35668;DHT22;22158;59.280;17.806;2024-03-08T14:12:40;7.60;99.90
35668;DHT22;22158;59.280;17.806;2024-03-08T14:15:08;7.50;99.90
35668;DHT22;22158;59.280;17.806;2024-03-08T14:17:34;7.40;99.90
35668;DHT22;22158;59.280;17.806;2024-03-08T14:20:01;7.40;99.90
35668;DHT22;22158;59.280;17.806;2024-03-08T14:22:26;7.40;99.90
35668;DHT22;22158;59.280;17.806;2024-03-08T14:24:52;7.40;99.90
35668;DHT22;22158;59.280;17.806;2024-03-08T14:27:18;7.50;99.90
35668;DHT22;22158;59.280;17.806;2024-03-08T14:29:44;7.60;99.90
35668;DHT22;22158;59.280;17.806;2024-03-08T14:32:10;7.50;99.90
35668;DHT22;22158;59.280;17.806;2024-03-08T14:34:36;7.70;99.90
35668;DHT22;22158;59.280;17.806;2024-03-08T14:37:02;8.00;99.70
35668;DHT22;22158;59.280;17.806;2024-03-08T14:39:31;8.10;99.00
35668;DHT22;22158;59.280;17.806;2024-03-08T14:41:59;8.50;99.00
35668;DHT22;22158;59.280;17.806;2024-03-08T14:44:25;8.60;98.30
35668;DHT22;22158;59.280;17.806;2024-03-08T14:46:57;8.80;98.00
35668;DHT22;22158;59.280;17.806;2024-03-08T14:49:23;9.30;97.10
35668;DHT22;22158;59.280;17.806;2024-03-08T14:51:51;9.70;96.40
35668;DHT22;22158;59.280;17.806;2024-03-08T14:54:17;9.50;96.40
35668;DHT22;22158;59.280;17.806;2024-03-08T14:56:48;9.90;95.70
35668;DHT22;22158;59.280;17.806;2024-03-08T14:59:16;10.00;95.20
35668;DHT22;22158;59.280;17.806;2024-03-08T15:01:42;9.80;95.40
35668;DHT22;22158;59.280;17.806;2024-03-08T15:04:09;9.80;95.80
35668;DHT22;22158;59.280;17.806;2024-03-08T15:06:38;9.60;95.70
35668;DHT22;22158;59.280;17.806;2024-03-08T15:09:04;9.10;96.10
35668;DHT22;22158;59.280;17.806;2024-03-08T15:11:45;8.40;96.90
35668;DHT22;22158;59.280;17.806;2024-03-08T15:14:11;7.60;98.50
35668;DHT22;22158;59.280;17.806;2024-03-08T15:16:40;7.10;99.20
35668;DHT22;22158;59.280;17.806;2024-03-08T15:19:07;6.50;99.90
35668;DHT22;22158;59.280;17.806;2024-03-08T15:21:33;6.00;99.90
35668;DHT22;22158;59.280;17.806;2024-03-08T15:24:00;5.70;99.90
35668;DHT22;22158;59.280;17.806;2024-03-08T15:26:28;5.50;99.90
35668;DHT22;22158;59.280;17.806;2024-03-08T15:28:55;5.30;99.90
35668;DHT22;22158;59.280;17.806;2024-03-08T15:31:22;4.90;99.90
35668;DHT22;22158;59.280;17.806;2024-03-08T15:33:50;4.60;99.90
35668;DHT22;22158;59.280;17.806;2024-03-08T15:36:29;4.40;99.90
35668;DHT22;22158;59.280;17.806;2024-03-08T15:38:59;4.10;99.90